createdAt,value
2017-08-19T00:00:02.188Z,15.6
2017-08-19T00:05:01.488Z,15.6
2017-08-19T00:10:02.174Z,15.6
2017-08-19T00:15:01.452Z,15.6
2017-08-19T00:20:02.085Z,15.5
2017-08-19T00:25:01.501Z,15.5
2017-08-19T00:30:01.331Z,15.6
2017-08-19T00:35:01.453Z,15.6
2017-08-19T00:40:01.371Z,15.6
2017-08-19T00:45:01.854Z,15.6
2017-08-19T00:50:01.597Z,15.6
2017-08-19T00:55:01.829Z,15.6
2017-08-19T01:00:01.646Z,15.6
2017-08-19T01:05:01.851Z,15.6
2017-08-19T01:10:01.620Z,15.6
2017-08-19T01:15:01.417Z,15.6
2017-08-19T01:20:02.156Z,15.6
2017-08-19T01:25:02.064Z,15.6
2017-08-19T01:30:01.830Z,15.6
2017-08-19T01:35:01.802Z,15.7
2017-08-19T01:40:01.730Z,15.7
2017-08-19T01:45:01.782Z,15.7
2017-08-19T01:50:01.526Z,15.7
2017-08-19T01:55:01.371Z,15.7
2017-08-19T02:00:02.126Z,15.7
2017-08-19T02:05:01.538Z,15.7
2017-08-19T02:10:01.248Z,15.7
2017-08-19T02:15:01.526Z,15.7
2017-08-19T02:20:01.436Z,15.7
2017-08-19T02:25:01.753Z,15.7
2017-08-19T02:30:01.374Z,15.7
2017-08-19T02:35:01.453Z,15
2017-08-19T02:40:01.373Z,15
2017-08-19T02:45:01.275Z,15
2017-08-19T02:50:01.225Z,15
2017-08-19T02:55:02.593Z,15
2017-08-19T03:00:01.451Z,15
2017-08-19T03:05:01.553Z,15
2017-08-19T03:10:01.250Z,15
2017-08-19T03:15:01.253Z,15
2017-08-19T03:20:01.918Z,15
2017-08-19T03:25:01.935Z,15
2017-08-19T03:30:02.010Z,15
2017-08-19T03:35:01.455Z,15
2017-08-19T03:40:01.286Z,15
2017-08-19T03:45:01.996Z,15
2017-08-19T03:50:01.719Z,15
2017-08-19T03:55:01.722Z,15
2017-08-19T04:00:01.876Z,14.4
2017-08-19T04:05:01.593Z,14.4
2017-08-19T04:10:01.528Z,14.4
2017-08-19T04:15:01.226Z,14.1
2017-08-19T04:20:02.152Z,14.1
2017-08-19T04:25:01.796Z,14.1
2017-08-19T04:30:01.277Z,14.1
2017-08-19T04:35:02.103Z,14
2017-08-19T04:40:02.110Z,13.9
2017-08-19T04:45:01.299Z,13.9
2017-08-19T04:50:02.225Z,13.9
2017-08-19T04:55:01.787Z,13.9
2017-08-19T05:00:01.849Z,13.9
2017-08-19T05:05:01.861Z,13.9
2017-08-19T05:10:01.635Z,13.9
2017-08-19T05:15:01.741Z,13.8
2017-08-19T05:20:01.437Z,13.8
2017-08-19T05:25:02.282Z,13.8
2017-08-19T05:30:01.150Z,13.8
2017-08-19T05:35:01.347Z,13.8
2017-08-19T05:40:01.356Z,13.8
2017-08-19T05:45:01.213Z,13.8
2017-08-19T05:50:01.191Z,13.8
2017-08-19T05:55:01.957Z,13.8
2017-08-19T06:00:02.074Z,13.8
2017-08-19T06:05:02.015Z,13.8
2017-08-19T06:10:02.009Z,13.8
2017-08-19T06:15:02.142Z,13.8
2017-08-19T06:20:04.892Z,13.8
2017-08-19T06:25:01.869Z,14.6
2017-08-19T06:30:13.458Z,14.6
2017-08-19T06:35:02.051Z,14.6
2017-08-19T06:40:01.943Z,14.6
2017-08-19T06:45:01.578Z,15
2017-08-19T06:50:01.580Z,15
2017-08-19T06:55:01.461Z,15
2017-08-19T07:00:01.498Z,15
2017-08-19T07:05:02.121Z,15
2017-08-19T07:10:02.110Z,15
2017-08-19T07:15:01.698Z,15
2017-08-19T07:20:01.473Z,15
2017-08-19T07:25:01.826Z,15
2017-08-19T07:30:01.932Z,15
2017-08-19T07:35:01.280Z,15
2017-08-19T07:40:02.043Z,15.2
2017-08-19T07:45:01.309Z,15.2
2017-08-19T07:50:01.257Z,15.6
2017-08-19T07:55:01.331Z,15.8
2017-08-19T08:00:01.353Z,15.8
2017-08-19T08:05:01.283Z,16.1
2017-08-19T08:10:01.383Z,16.2
2017-08-19T08:15:01.351Z,16.2
2017-08-19T08:20:02.042Z,16.5
2017-08-19T08:25:02.212Z,16.6
2017-08-19T08:30:01.203Z,16.9
2017-08-19T08:35:01.574Z,17
2017-08-19T08:40:01.415Z,17
2017-08-19T08:45:02.006Z,17.3
2017-08-19T08:50:01.972Z,17.3
2017-08-19T08:55:01.866Z,17.4
2017-08-19T09:00:01.500Z,17.6
2017-08-19T09:05:01.757Z,17.5
2017-08-19T09:10:01.784Z,17.5
2017-08-19T09:15:01.792Z,17.5
2017-08-19T09:20:01.281Z,17.5
2017-08-19T09:25:02.111Z,17.5
2017-08-19T09:30:01.727Z,17.5
2017-08-19T09:35:01.473Z,17.5
2017-08-19T09:40:01.228Z,17.5
2017-08-19T09:45:01.870Z,17.8
2017-08-19T09:50:01.887Z,18.2
2017-08-19T09:55:01.317Z,18.2
2017-08-19T10:00:01.663Z,18.3
2017-08-19T10:05:01.831Z,18.3
2017-08-19T10:10:01.960Z,18.5
2017-08-19T10:15:01.508Z,18.5
2017-08-19T10:20:01.276Z,18.5
2017-08-19T10:25:04.254Z,18.4
2017-08-19T10:30:01.540Z,18.4
2017-08-19T10:35:01.558Z,18.4
2017-08-19T10:40:01.375Z,18.1
2017-08-19T10:45:01.863Z,18
2017-08-19T10:50:01.806Z,17.9
2017-08-19T10:55:01.376Z,17.9
2017-08-19T11:00:01.663Z,17.9
2017-08-19T11:05:01.854Z,17.7
2017-08-19T11:10:01.661Z,17.6
2017-08-19T11:15:01.475Z,17.3
2017-08-19T11:20:01.255Z,17.3
2017-08-19T11:25:01.776Z,16.4
2017-08-19T11:30:01.197Z,16.4
2017-08-19T11:35:02.034Z,16.2
2017-08-19T11:40:01.952Z,16.1
2017-08-19T11:45:01.365Z,15.8
2017-08-19T11:50:01.667Z,15.8
2017-08-19T11:55:01.218Z,15.8
2017-08-19T12:00:01.504Z,15.8
2017-08-19T12:05:02.007Z,15.2
2017-08-19T12:10:01.849Z,15.2
2017-08-19T12:15:02.156Z,15.2
2017-08-19T12:20:01.853Z,15.2
2017-08-19T12:25:01.799Z,15.2
2017-08-19T12:30:02.067Z,15
2017-08-19T12:35:02.096Z,15
2017-08-19T12:40:01.766Z,15
2017-08-19T12:45:02.176Z,15
2017-08-19T12:50:02.104Z,15
2017-08-19T12:55:01.861Z,15
2017-08-19T13:00:01.193Z,15.3
2017-08-19T13:05:01.202Z,15.4
2017-08-19T13:10:02.032Z,15.6
2017-08-19T13:15:01.674Z,15.6
2017-08-19T13:20:01.386Z,15.8
2017-08-19T13:25:02.460Z,15.9
2017-08-19T13:30:01.637Z,15.9
2017-08-19T13:35:01.259Z,16.2
2017-08-19T13:40:02.045Z,16.4
2017-08-19T13:45:02.074Z,16.5
2017-08-19T13:50:01.978Z,16.6
2017-08-19T13:55:01.591Z,16.8
2017-08-19T14:00:01.862Z,16.9
2017-08-19T14:05:01.663Z,16.9
2017-08-19T14:10:01.513Z,17.1
2017-08-19T14:15:01.380Z,17.3
2017-08-19T14:20:02.071Z,17.3
2017-08-19T14:25:01.933Z,17.4
2017-08-19T14:30:01.920Z,17.6
2017-08-19T14:35:01.785Z,17.6
2017-08-19T14:40:01.497Z,17.6
2017-08-19T14:45:01.539Z,17.6
2017-08-19T14:50:01.481Z,18
2017-08-19T14:55:02.125Z,18
2017-08-19T15:00:01.280Z,18
2017-08-19T15:05:01.840Z,18.2
2017-08-19T15:10:01.728Z,18.2
2017-08-19T15:15:01.760Z,18.2
2017-08-19T15:20:01.538Z,18.4
2017-08-19T15:25:01.871Z,18.4
2017-08-19T15:30:02.014Z,18.5
2017-08-19T15:35:02.126Z,18.5
2017-08-19T15:40:01.898Z,18.5
2017-08-19T15:45:01.364Z,18.5
2017-08-19T15:50:01.430Z,18.5
2017-08-19T15:55:01.288Z,18.5
2017-08-19T16:00:01.380Z,18.5
2017-08-19T16:05:02.026Z,18.5
2017-08-19T16:10:01.888Z,18.4
2017-08-19T16:15:01.534Z,18.4
2017-08-19T16:20:01.752Z,18.4
2017-08-19T16:25:02.772Z,18.4
2017-08-19T16:30:01.342Z,18.2
2017-08-19T16:35:02.095Z,18.2
2017-08-19T16:40:01.710Z,18.2
2017-08-19T16:45:01.774Z,18.2
2017-08-19T16:50:01.595Z,18.2
2017-08-19T16:55:01.241Z,18.3
2017-08-19T17:00:01.835Z,18.3
2017-08-19T17:05:01.374Z,18.3
2017-08-19T17:10:02.199Z,18.3
2017-08-19T17:15:01.750Z,18.3
2017-08-19T17:20:02.288Z,18.3
2017-08-19T17:25:01.874Z,18.2
2017-08-19T17:30:02.517Z,18.2
2017-08-19T17:35:01.578Z,18.2
2017-08-19T17:40:01.918Z,17.9
2017-08-19T17:45:01.883Z,17.8
2017-08-19T17:50:01.405Z,17.8
2017-08-19T17:55:01.735Z,17.8
2017-08-19T18:00:01.179Z,17.4
2017-08-19T18:05:01.868Z,17.4
2017-08-19T18:10:02.620Z,17.4
2017-08-19T18:15:01.735Z,17.4
2017-08-19T18:20:01.887Z,16.6
2017-08-19T18:25:01.315Z,16.6
2017-08-19T18:30:02.035Z,16.4
2017-08-19T18:35:01.517Z,16.2
2017-08-19T18:40:01.663Z,16.2
2017-08-19T18:45:01.359Z,16.2
2017-08-19T18:50:01.626Z,15.7
2017-08-19T18:55:02.123Z,15.7
2017-08-19T19:00:01.590Z,15.4
2017-08-19T19:05:01.474Z,15.4
2017-08-19T19:10:01.489Z,15
2017-08-19T19:15:01.455Z,15
2017-08-19T19:20:02.121Z,15
2017-08-19T19:25:01.763Z,15
2017-08-19T19:30:01.924Z,15
2017-08-19T19:35:01.763Z,15
2017-08-19T19:40:01.490Z,15
2017-08-19T19:45:01.950Z,15
2017-08-19T19:50:01.697Z,15
2017-08-19T19:55:01.681Z,15
2017-08-19T20:00:01.720Z,14.9
2017-08-19T20:05:01.468Z,14.9
2017-08-19T20:10:01.250Z,14.6
2017-08-19T20:15:01.795Z,14.6
2017-08-19T20:20:02.383Z,14.4
2017-08-19T20:25:01.355Z,14.4
2017-08-19T20:30:01.534Z,14.4
2017-08-19T20:35:02.097Z,14.3
2017-08-19T20:40:01.940Z,14.3
2017-08-19T20:45:01.841Z,14.2
2017-08-19T20:50:02.111Z,14.2
2017-08-19T20:55:01.202Z,14.2
2017-08-19T21:00:02.135Z,14.2
2017-08-19T21:05:02.042Z,14.2
2017-08-19T21:10:01.522Z,14.2
2017-08-19T21:15:02.069Z,14.2
2017-08-19T21:20:02.767Z,14.2
2017-08-19T21:25:01.898Z,14.2
2017-08-19T21:30:02.065Z,14.2
2017-08-19T21:35:02.358Z,14.2
2017-08-19T21:40:01.345Z,14.2
2017-08-19T21:45:01.400Z,14.2
2017-08-19T21:50:01.837Z,14.2
2017-08-19T21:55:01.774Z,14.2
2017-08-19T22:00:01.409Z,14.2
2017-08-19T22:05:01.336Z,14.2
2017-08-19T22:10:01.534Z,14.1
2017-08-19T22:15:01.517Z,14.1
2017-08-19T22:20:01.393Z,14
2017-08-19T22:25:01.465Z,14
2017-08-19T22:30:01.234Z,14
2017-08-19T22:35:01.789Z,14
2017-08-19T22:40:01.832Z,13.9
2017-08-19T22:45:01.252Z,13.9
2017-08-19T22:50:02.005Z,13.9
2017-08-19T22:55:01.253Z,13.8
2017-08-19T23:00:01.339Z,13.8
2017-08-19T23:05:01.695Z,13.8
2017-08-19T23:10:01.572Z,13.7
2017-08-19T23:15:01.608Z,13.7
2017-08-19T23:20:01.373Z,13.7
2017-08-19T23:25:01.354Z,13.6
2017-08-19T23:30:01.167Z,13.5
2017-08-19T23:35:01.442Z,13.5
2017-08-19T23:40:01.270Z,13.4
2017-08-19T23:45:02.064Z,13.3
2017-08-19T23:50:01.811Z,13.3
2017-08-19T23:55:01.853Z,13.3
